Terminal Aerodrome Forecast
Issued by NWS Corpus Christi, TX

Home | Current Version | Previous Version | Text Only | Print | Product List | Glossary On
Versions: 1 2 3 4 5 6 7 8 9 10 11 12 13 14 15 16 17 18 19
000
FTUS44 KCRP 292330
TAFCRP
TAF
KCRP 292330Z 3000/3024 15014KT P6SM FEW020
     FM300300 16009KT P6SM FEW015
     FM300900 19006KT P6SM SCT010
      TEMPO 3010/3014 5SM BR BKN010
     FM301800 13012KT P6SM SCT030=

USA.gov is the U.S. government's official web portal to all federal, state and local government web resources and services.